Time;durP1;ratioP1;P1;durP2;ratioP2;P2;SDS_P1;SDS_P2;PMS_P1;PMS_P2;Temp;Humidity;BMP_temperature;BMP_pressure;BME280_temperature;BME280_humidity;BME280_pressure;Samples;Min_cycle;Max_cycle;Signal;HPM_P1;HPM_P2
2023/08/07 00:00:53;;;;;;;;;;;;;;;22.49;27.79;96978.56;4979165;28;1012;-76
2023/08/07 00:03:19;;;;;;;;;;;;;;;22.76;27.58;96978.47;4979499;28;906;-76
2023/08/07 00:05:47;;;;;;;;;;;;;;;22.60;27.35;96968.28;4961925;28;957;-77
2023/08/07 00:08:13;;;;;;;;;;;;;;;22.54;27.58;96977.91;4979385;28;935;-76
2023/08/07 00:10:38;;;;;;;;;;;;;;;22.39;27.86;96977.00;4957557;29;1961;-76
2023/08/07 00:13:04;;;;;;;;;;;;;;;22.56;27.60;96966.88;4957749;29;1184;-76
2023/08/07 00:15:29;;;;;;;;;;;;;;;22.47;28.04;96975.38;4957539;29;857;-77
2023/08/07 00:17:55;;;;;;;;;;;;;;;22.69;27.45;96987.31;4957574;29;1040;-77
2023/08/07 00:20:21;;;;;;;;;;;;;;;22.39;27.99;96980.63;4941423;29;922;-77
2023/08/07 00:22:46;;;;;;;;;;;;;;;22.43;28.03;96986.88;4957840;29;853;-77
2023/08/07 00:25:12;;;;;;;;;;;;;;;22.48;27.93;96982.63;4941847;29;1166;-77
2023/08/07 00:27:37;;;;;;;;;;;;;;;22.38;28.39;96979.03;4941322;29;1039;-76
2023/08/07 00:30:03;;;;;;;;;;;;;;;22.53;28.06;96962.94;4903435;29;1907;-76
2023/08/07 00:32:28;;;;;;;;;;;;;;;22.54;28.14;96966.56;4918919;29;992;-76
2023/08/07 00:34:54;;;;;;;;;;;;;;;22.71;28.01;96967.00;4919366;29;975;-77
2023/08/07 00:37:20;;;;;;;;;;;;;;;22.41;28.59;96971.63;4919193;29;1154;-76
2023/08/07 00:39:45;;;;;;;;;;;;;;;22.51;28.15;96981.69;4919372;29;961;-77
2023/08/07 00:42:11;;;;;;;;;;;;;;;22.40;28.70;96981.41;4922097;29;993;-77
2023/08/07 00:44:36;;;;;;;;;;;;;;;22.47;28.60;96981.06;4938198;29;1300;-76
2023/08/07 00:47:02;;;;;;;;;;;;;;;22.39;28.78;96982.66;4922094;29;1068;-76
2023/08/07 00:49:28;;;;;;;;;;;;;;;22.26;28.89;96994.16;4922083;29;1906;-76
2023/08/07 00:51:54;;;;;;;;;;;;;;;22.49;28.57;96998.41;4938427;29;958;-76
2023/08/07 00:54:20;;;;;;;;;;;;;;;22.17;29.16;96991.31;4937733;29;1007;-76
2023/08/07 00:56:45;;;;;;;;;;;;;;;22.46;28.36;97002.16;4903066;29;931;-77
2023/08/07 00:59:11;;;;;;;;;;;;;;;22.43;28.55;97003.88;4902994;29;1193;-76
2023/08/07 01:01:36;;;;;;;;;;;;;;;22.57;28.61;97002.47;4902971;29;1007;-77
2023/08/07 01:04:02;;;;;;;;;;;;;;;22.35;28.78;97009.09;4918494;29;1105;-77
2023/08/07 01:06:28;;;;;;;;;;;;;;;22.23;29.18;96998.75;4918605;29;1010;-77
2023/08/07 01:08:53;;;;;;;;;;;;;;;22.35;29.11;97000.59;4902809;29;1988;-77
2023/08/07 01:11:37;;;;;;;;;;;;;;;22.32;29.12;97004.38;4918749;29;1118;-77
2023/08/07 01:14:07;;;;;;;;;;;;;;;22.32;28.97;97010.03;4918600;29;1126;-76
2023/08/07 01:16:36;;;;;;;;;;;;;;;22.61;28.54;97014.44;4902815;29;1248;-77
2023/08/07 01:19:02;;;;;;;;;;;;;;;22.49;28.80;97021.06;4917866;29;889;-77
2023/08/07 01:21:29;;;;;;;;;;;;;;;22.65;28.73;97029.22;4883915;29;1241;-76
2023/08/07 01:23:54;;;;;;;;;;;;;;;22.44;28.69;97018.88;4883726;29;944;-77
2023/08/07 01:26:20;;;;;;;;;;;;;;;22.42;28.84;97027.84;4899249;29;912;-77
2023/08/07 01:28:59;;;;;;;;;;;;;;;22.22;29.28;97016.97;4899210;29;1911;-77
2023/08/07 01:31:24;;;;;;;;;;;;;;;22.24;29.40;97014.47;4880581;29;1134;-77
2023/08/07 01:33:58;;;;;;;;;;;;;;;22.59;28.58;97022.63;4894127;29;973;-76
2023/08/07 01:36:25;;;;;;;;;;;;;;;22.72;28.63;97019.59;4918255;29;1260;-77
2023/08/07 01:38:50;;;;;;;;;;;;;;;22.34;29.30;97030.22;4902369;29;1137;-77
2023/08/07 01:41:16;;;;;;;;;;;;;;;22.38;29.23;97029.25;4918034;29;1220;-77
2023/08/07 01:43:41;;;;;;;;;;;;;;;22.56;29.20;97034.91;4899413;29;933;-76
2023/08/07 01:46:07;;;;;;;;;;;;;;;22.41;29.22;97045.31;4883269;29;1287;-76
2023/08/07 01:48:33;;;;;;;;;;;;;;;22.54;29.19;97041.06;4899330;29;1138;-77
2023/08/07 01:50:58;;;;;;;;;;;;;;;22.50;29.11;97059.50;4899266;29;2030;-77
2023/08/07 01:53:24;;;;;;;;;;;;;;;22.29;29.36;97055.56;4895297;29;1244;-77
2023/08/07 01:55:49;;;;;;;;;;;;;;;22.47;29.01;97066.09;4914890;29;1125;-77
2023/08/07 01:58:15;;;;;;;;;;;;;;;22.67;28.61;97063.56;4883372;29;1258;-76
2023/08/07 02:00:41;;;;;;;;;;;;;;;22.58;28.84;97066.41;4883413;29;1090;-77
2023/08/07 02:03:08;;;;;;;;;;;;;;;22.41;29.17;97056.66;4929976;29;1208;-76
2023/08/07 02:05:34;;;;;;;;;;;;;;;22.56;28.82;97074.59;4917794;29;1097;-77
2023/08/07 02:08:00;;;;;;;;;;;;;;;22.57;28.84;97070.50;4918142;29;1382;-76
2023/08/07 02:10:26;;;;;;;;;;;;;;;22.55;28.46;97078.69;4917741;29;1991;-77
2023/08/07 02:12:52;;;;;;;;;;;;;;;22.44;28.77;97084.06;4918031;29;991;-76
2023/08/07 02:15:18;;;;;;;;;;;;;;;22.25;29.22;97086.88;4918053;29;1192;-77
2023/08/07 02:17:43;;;;;;;;;;;;;;;22.28;28.95;97077.47;4917876;29;1296;-77
2023/08/07 02:20:09;;;;;;;;;;;;;;;22.41;28.79;97079.34;4918098;29;979;-76
2023/08/07 02:22:35;;;;;;;;;;;;;;;22.51;28.40;97078.06;4918014;29;913;-76
2023/08/07 02:25:00;;;;;;;;;;;;;;;22.47;28.48;97083.09;4917529;29;1188;-76
2023/08/07 02:27:26;;;;;;;;;;;;;;;22.48;28.18;97084.66;4917987;29;1306;-76
2023/08/07 02:29:51;;;;;;;;;;;;;;;22.56;27.97;97097.28;4925530;28;1980;-76
2023/08/07 02:32:17;;;;;;;;;;;;;;;22.64;27.65;97098.56;4924666;29;961;-77
2023/08/07 02:34:43;;;;;;;;;;;;;;;22.57;27.64;97098.84;4908667;29;1298;-76
2023/08/07 02:37:08;;;;;;;;;;;;;;;22.52;27.73;97096.66;4924212;29;1020;-76
2023/08/07 02:39:35;;;;;;;;;;;;;;;22.61;27.80;97099.47;4883620;29;1094;-76
2023/08/07 02:42:01;;;;;;;;;;;;;;;22.67;27.43;97096.81;4868501;29;1012;-77
2023/08/07 02:44:26;;;;;;;;;;;;;;;22.47;27.82;97105.78;4883526;29;1127;-76
2023/08/07 02:46:52;;;;;;;;;;;;;;;22.39;28.08;97105.31;4868080;29;1074;-76
2023/08/07 02:49:17;;;;;;;;;;;;;;;22.18;28.20;97111.94;4867924;29;1915;-76
2023/08/07 02:51:43;;;;;;;;;;;;;;;22.21;28.56;97117.41;4867949;29;1064;-77
2023/08/07 02:54:09;;;;;;;;;;;;;;;22.40;28.31;97111.78;4867894;29;994;-76
2023/08/07 02:56:34;;;;;;;;;;;;;;;22.36;27.96;97118.38;4837149;29;1194;-76
2023/08/07 02:59:01;;;;;;;;;;;;;;;22.42;28.29;97120.59;4868040;29;962;-77
2023/08/07 03:01:27;;;;;;;;;;;;;;;22.54;28.16;97117.59;4868292;29;1224;-76
2023/08/07 03:03:53;;;;;;;;;;;;;;;22.60;28.09;97110.03;4850523;29;1016;-77
2023/08/07 03:06:18;;;;;;;;;;;;;;;22.29;28.60;97120.75;4886574;29;1333;-76
2023/08/07 03:08:44;;;;;;;;;;;;;;;22.58;27.96;97112.53;4867439;29;1276;-77
2023/08/07 03:11:10;;;;;;;;;;;;;;;22.46;28.06;97115.56;4882736;29;1911;-77
2023/08/07 03:13:36;;;;;;;;;;;;;;;22.32;28.50;97125.47;4848106;29;1302;-78
2023/08/07 03:16:04;;;;;;;;;;;;;;;22.33;28.44;97116.50;4835168;29;844;-77
2023/08/07 03:18:30;;;;;;;;;;;;;;;22.27;28.62;97115.53;4882238;29;916;-78
2023/08/07 03:20:56;;;;;;;;;;;;;;;22.28;28.41;97122.78;4870823;29;1242;-77
2023/08/07 03:23:22;;;;;;;;;;;;;;;22.33;28.59;97127.06;4888633;29;1191;-77
2023/08/07 03:25:48;;;;;;;;;;;;;;;22.41;28.49;97111.28;4888484;29;1187;-78
2023/08/07 03:28:14;;;;;;;;;;;;;;;22.50;28.48;97116.19;4904305;29;1146;-78
2023/08/07 03:30:39;;;;;;;;;;;;;;;22.41;28.61;97122.63;4904406;29;1918;-78
2023/08/07 03:33:06;;;;;;;;;;;;;;;22.13;29.20;97119.00;4903852;29;1667;-77
2023/08/07 03:35:33;;;;;;;;;;;;;;;22.26;28.87;97119.63;4889610;29;1228;-77
2023/08/07 03:37:59;;;;;;;;;;;;;;;22.36;28.86;97118.38;4873409;29;1381;-77
2023/08/07 03:40:25;;;;;;;;;;;;;;;22.29;29.01;97124.38;4904071;29;1757;-78
2023/08/07 03:42:51;;;;;;;;;;;;;;;22.42;28.74;97129.09;4904372;29;1271;-77
2023/08/07 03:45:17;;;;;;;;;;;;;;;22.34;28.65;97128.63;4924351;28;1341;-78
2023/08/07 03:47:42;;;;;;;;;;;;;;;22.42;28.60;97118.53;4962799;28;1112;-77
2023/08/07 03:50:08;;;;;;;;;;;;;;;22.63;28.30;97111.13;4946762;28;1979;-77
2023/08/07 03:52:33;;;;;;;;;;;;;;;22.33;28.74;97113.66;4946681;28;1090;-77
2023/08/07 03:55:00;;;;;;;;;;;;;;;22.53;28.58;97120.91;4979504;28;809;-77
2023/08/07 03:57:25;;;;;;;;;;;;;;;22.35;28.93;97133.81;4962898;28;871;-77
2023/08/07 03:59:51;;;;;;;;;;;;;;;22.30;28.83;97131.59;4962869;28;877;-77
2023/08/07 04:02:16;;;;;;;;;;;;;;;22.31;28.80;97133.19;4980089;28;759;-77
2023/08/07 04:04:42;;;;;;;;;;;;;;;22.16;29.13;97128.59;4938848;29;1100;-77
2023/08/07 04:07:07;;;;;;;;;;;;;;;22.18;29.04;97134.59;4907433;29;1165;-78
2023/08/07 04:09:33;;;;;;;;;;;;;;;22.55;28.46;97141.06;4907044;29;1987;-77
2023/08/07 04:11:59;;;;;;;;;;;;;;;22.21;28.89;97136.47;4907270;29;912;-77
2023/08/07 04:14:24;;;;;;;;;;;;;;;22.44;28.61;97140.75;4919376;29;929;-76
2023/08/07 04:16:50;;;;;;;;;;;;;;;22.17;28.96;97133.78;4919817;29;1216;-78
2023/08/07 04:19:16;;;;;;;;;;;;;;;22.31;28.68;97124.66;4900755;29;1142;-78
2023/08/07 04:21:42;;;;;;;;;;;;;;;22.35;28.85;97122.47;4900633;29;942;-78
2023/08/07 04:24:10;;;;;;;;;;;;;;;22.17;29.06;97128.09;4869595;29;1147;-77
2023/08/07 04:26:36;;;;;;;;;;;;;;;22.31;28.75;97129.56;4869695;29;946;-77
2023/08/07 04:29:02;;;;;;;;;;;;;;;22.19;28.97;97113.50;4900414;29;1989;-77
2023/08/07 04:31:27;;;;;;;;;;;;;;;22.31;28.72;97102.00;4883109;29;1230;-77
2023/08/07 04:33:53;;;;;;;;;;;;;;;22.49;28.33;97089.88;4888642;29;1324;-77
2023/08/07 04:36:20;;;;;;;;;;;;;;;22.38;28.82;97095.22;4895946;29;1302;-78
2023/08/07 04:38:46;;;;;;;;;;;;;;;22.47;28.86;97088.78;4900367;29;1026;-78
2023/08/07 04:41:12;;;;;;;;;;;;;;;22.36;29.00;97101.38;4900178;29;802;-77
2023/08/07 04:43:37;;;;;;;;;;;;;;;22.36;29.23;97107.03;4899917;29;879;-77
2023/08/07 04:46:03;;;;;;;;;;;;;;;22.42;29.22;97103.56;4899900;29;1223;-77
2023/08/07 04:48:28;;;;;;;;;;;;;;;22.64;29.06;97112.72;4899944;29;940;-78
2023/08/07 04:50:54;;;;;;;;;;;;;;;22.69;29.10;97117.75;4930250;29;1980;-76
2023/08/07 04:53:19;;;;;;;;;;;;;;;22.40;29.52;97128.78;4905736;29;1080;-77
2023/08/07 04:55:46;;;;;;;;;;;;;;;22.47;29.78;97128.47;4955201;29;875;-78
2023/08/07 04:58:11;;;;;;;;;;;;;;;22.47;29.89;97117.13;4939193;29;1176;-78
2023/08/07 05:00:37;;;;;;;;;;;;;;;22.61;29.61;97120.13;4937827;29;1143;-78
2023/08/07 05:03:02;;;;;;;;;;;;;;;22.30;30.01;97120.28;4922158;29;1137;-78
2023/08/07 05:05:28;;;;;;;;;;;;;;;22.42;30.24;97112.88;4921793;29;995;-78
2023/08/07 05:07:57;;;;;;;;;;;;;;;22.57;29.75;97116.66;4937791;29;846;-76
2023/08/07 05:10:23;;;;;;;;;;;;;;;22.52;30.05;97125.00;4922182;29;1914;-76
2023/08/07 05:12:54;;;;;;;;;;;;;;;22.56;29.92;97119.97;4937445;29;893;-75
2023/08/07 05:15:20;;;;;;;;;;;;;;;22.73;29.60;97117.59;4922519;29;804;-76
2023/08/07 05:17:46;;;;;;;;;;;;;;;22.61;29.92;97122.16;4884087;29;1304;-75
2023/08/07 05:20:11;;;;;;;;;;;;;;;22.59;30.12;97127.53;4884165;29;1247;-76
2023/08/07 05:22:37;;;;;;;;;;;;;;;22.52;30.18;97131.44;4899433;29;939;-75
2023/08/07 05:25:03;;;;;;;;;;;;;;;22.54;30.07;97148.00;4899511;29;984;-75
2023/08/07 05:27:29;;;;;;;;;;;;;;;22.64;30.23;97141.06;4884134;29;1114;-75
2023/08/07 05:29:54;;;;;;;;;;;;;;;22.50;30.12;97144.53;4899705;29;1985;-77
2023/08/07 05:32:20;;;;;;;;;;;;;;;22.40;30.59;97145.78;4899437;29;952;-75
2023/08/07 05:34:45;;;;;;;;;;;;;;;22.55;30.14;97143.91;4899589;29;955;-75
2023/08/07 05:37:11;;;;;;;;;;;;;;;22.71;29.90;97146.41;4886529;29;1049;-76
2023/08/07 05:39:36;;;;;;;;;;;;;;;22.66;30.07;97151.94;4918664;29;977;-75
2023/08/07 05:42:02;;;;;;;;;;;;;;;22.73;29.98;97155.22;4902446;29;918;-75
2023/08/07 05:44:28;;;;;;;;;;;;;;;22.65;29.82;97145.50;4918249;29;934;-75
2023/08/07 05:46:54;;;;;;;;;;;;;;;22.59;30.09;97170.06;4902352;29;1447;-75
2023/08/07 05:49:19;;;;;;;;;;;;;;;22.35;30.50;97167.03;4880390;29;1981;-75
2023/08/07 05:51:45;;;;;;;;;;;;;;;22.54;30.04;97162.97;4849614;29;1151;-75
2023/08/07 05:54:10;;;;;;;;;;;;;;;22.56;30.11;97153.97;4868417;29;1104;-75
2023/08/07 05:56:37;;;;;;;;;;;;;;;22.81;29.62;97165.00;4902660;29;853;-76
2023/08/07 05:59:02;;;;;;;;;;;;;;;22.63;29.89;97165.00;4880649;29;937;-76
2023/08/07 06:01:30;;;;;;;;;;;;;;;22.50;30.08;97167.22;4864904;29;943;-76
2023/08/07 06:03:56;;;;;;;;;;;;;;;22.83;29.38;97156.81;4881582;29;837;-76
2023/08/07 06:06:22;;;;;;;;;;;;;;;22.74;29.68;97182.34;4868737;29;916;-76
2023/08/07 06:08:47;;;;;;;;;;;;;;;22.60;29.87;97174.47;4868926;29;1280;-76
2023/08/07 06:11:13;;;;;;;;;;;;;;;22.53;29.71;97186.09;4868847;29;1907;-77
2023/08/07 06:13:40;;;;;;;;;;;;;;;22.55;29.79;97197.78;4884402;29;942;-76
2023/08/07 06:16:06;;;;;;;;;;;;;;;22.51;29.71;97202.81;4868611;29;903;-77
2023/08/07 06:18:31;;;;;;;;;;;;;;;22.43;29.78;97207.19;4884252;29;905;-77
2023/08/07 06:20:57;;;;;;;;;;;;;;;22.59;29.11;97201.25;4884079;29;1114;-78
2023/08/07 06:23:22;;;;;;;;;;;;;;;22.72;28.93;97193.38;4884051;29;926;-78
2023/08/07 06:25:48;;;;;;;;;;;;;;;22.54;29.37;97201.88;4887811;29;979;-77
2023/08/07 06:28:14;;;;;;;;;;;;;;;22.74;28.96;97207.06;4921358;29;906;-77
2023/08/07 06:30:39;;;;;;;;;;;;;;;22.72;28.80;97201.88;4936834;29;1918;-76
2023/08/07 06:33:05;;;;;;;;;;;;;;;22.78;28.83;97210.53;4957701;29;984;-77
2023/08/07 06:35:30;;;;;;;;;;;;;;;22.62;28.80;97220.13;4941400;29;950;-77
2023/08/07 06:37:56;;;;;;;;;;;;;;;22.48;29.24;97218.69;4957425;29;868;-78
2023/08/07 06:40:21;;;;;;;;;;;;;;;22.54;28.85;97221.72;4942946;29;902;-77
2023/08/07 06:42:47;;;;;;;;;;;;;;;22.38;29.44;97233.31;4942349;29;958;-76
2023/08/07 06:45:12;;;;;;;;;;;;;;;22.26;29.33;97232.97;4956990;29;1356;-77
2023/08/07 06:47:38;;;;;;;;;;;;;;;22.45;29.07;97233.03;4941328;29;768;-77
2023/08/07 06:50:04;;;;;;;;;;;;;;;22.39;29.09;97229.25;4925418;29;1981;-77
2023/08/07 06:52:29;;;;;;;;;;;;;;;22.50;28.84;97235.25;4957242;29;915;-76
2023/08/07 06:54:55;;;;;;;;;;;;;;;22.74;28.40;97233.41;4957054;29;907;-77
2023/08/07 06:57:21;;;;;;;;;;;;;;;22.71;28.41;97240.00;4942508;29;937;-76
2023/08/07 06:59:46;;;;;;;;;;;;;;;22.51;28.68;97231.16;4940879;29;841;-77
2023/08/07 07:02:12;;;;;;;;;;;;;;;22.45;28.81;97241.53;4940910;29;986;-77
2023/08/07 07:04:38;;;;;;;;;;;;;;;22.59;28.69;97253.06;4941112;29;880;-77
2023/08/07 07:07:04;;;;;;;;;;;;;;;22.81;28.41;97255.78;4941080;29;1157;-76
2023/08/07 07:09:29;;;;;;;;;;;;;;;22.58;28.77;97271.31;4941967;29;2045;-76
2023/08/07 07:11:55;;;;;;;;;;;;;;;22.53;28.84;97263.44;4941969;29;933;-77
2023/08/07 07:14:21;;;;;;;;;;;;;;;22.52;28.86;97261.06;4956373;29;904;-77
2023/08/07 07:16:47;;;;;;;;;;;;;;;22.48;28.58;97260.44;4938565;29;1402;-78
2023/08/07 07:19:12;;;;;;;;;;;;;;;22.45;28.68;97256.50;4923721;29;1200;-77
2023/08/07 07:21:38;;;;;;;;;;;;;;;22.60;28.69;97251.03;4898135;29;1364;-77
2023/08/07 07:24:04;;;;;;;;;;;;;;;22.55;28.44;97263.78;4883067;29;916;-77
2023/08/07 07:26:29;;;;;;;;;;;;;;;22.39;28.98;97257.59;4898707;29;1021;-78
2023/08/07 07:28:55;;;;;;;;;;;;;;;22.48;28.60;97260.44;4883229;29;768;-78
2023/08/07 07:31:21;;;;;;;;;;;;;;;22.52;28.61;97275.25;4882983;29;1972;-77
2023/08/07 07:33:47;;;;;;;;;;;;;;;22.48;28.85;97274.59;4883075;29;939;-77
2023/08/07 07:36:16;;;;;;;;;;;;;;;22.47;28.65;97281.53;4898520;29;1118;-78
2023/08/07 07:38:41;;;;;;;;;;;;;;;22.48;28.65;97286.72;4882678;29;903;-77
2023/08/07 07:41:10;;;;;;;;;;;;;;;22.69;28.11;97282.25;4883093;29;1061;-78
2023/08/07 07:43:35;;;;;;;;;;;;;;;22.78;28.33;97279.41;4898330;29;1197;-77
2023/08/07 07:46:01;;;;;;;;;;;;;;;22.71;28.27;97279.72;4898168;29;1188;-76
2023/08/07 07:48:27;;;;;;;;;;;;;;;22.47;28.69;97292.88;4901244;29;1114;-77
2023/08/07 07:50:57;;;;;;;;;;;;;;;22.36;28.99;97288.44;4885781;29;1987;-77
2023/08/07 07:53:23;;;;;;;;;;;;;;;22.50;28.81;97286.28;4901046;29;944;-77
2023/08/07 07:55:48;;;;;;;;;;;;;;;22.56;28.62;97290.06;4901404;29;929;-77
2023/08/07 07:58:14;;;;;;;;;;;;;;;22.70;28.32;97278.13;4907523;29;1026;-77
2023/08/07 08:00:40;;;;;;;;;;;;;;;22.65;28.71;97273.09;4924279;29;913;-77
2023/08/07 08:03:05;;;;;;;;;;;;;;;22.61;28.74;97276.06;4941332;29;856;-77
2023/08/07 08:05:31;;;;;;;;;;;;;;;22.34;28.98;97276.78;4908494;29;915;-77
2023/08/07 08:07:57;;;;;;;;;;;;;;;22.65;28.40;97277.97;4924322;29;893;-78
2023/08/07 08:10:22;;;;;;;;;;;;;;;22.71;28.72;97274.03;4939902;29;1902;-78
2023/08/07 08:12:48;;;;;;;;;;;;;;;22.57;28.50;97283.13;4923794;29;1298;-77
2023/08/07 08:15:14;;;;;;;;;;;;;;;22.63;28.70;97292.59;4923880;29;1055;-77
2023/08/07 08:17:40;;;;;;;;;;;;;;;22.66;28.42;97294.50;4885151;29;1003;-77
2023/08/07 08:20:06;;;;;;;;;;;;;;;22.52;28.66;97301.56;4884953;29;1148;-77
2023/08/07 08:22:31;;;;;;;;;;;;;;;22.63;28.42;97310.41;4869856;29;1045;-77
2023/08/07 08:24:57;;;;;;;;;;;;;;;22.38;28.91;97309.84;4869536;29;965;-77
2023/08/07 08:27:25;;;;;;;;;;;;;;;22.47;29.08;97309.88;4885232;29;1302;-78
2023/08/07 08:29:50;;;;;;;;;;;;;;;22.61;28.68;97309.31;4884740;29;1907;-77
2023/08/07 08:32:17;;;;;;;;;;;;;;;22.71;28.39;97301.63;4900141;29;960;-77
2023/08/07 08:34:43;;;;;;;;;;;;;;;22.46;29.03;97309.09;4884873;29;940;-76
2023/08/07 08:37:10;;;;;;;;;;;;;;;22.59;28.82;97306.94;4868530;29;959;-78
2023/08/07 08:39:36;;;;;;;;;;;;;;;22.43;29.01;97309.22;4884691;29;1276;-77
2023/08/07 08:42:01;;;;;;;;;;;;;;;22.78;28.54;97324.00;4884434;29;1129;-78
2023/08/07 08:44:27;;;;;;;;;;;;;;;22.65;28.47;97324.13;4869006;29;1235;-78
2023/08/07 08:46:55;;;;;;;;;;;;;;;22.47;29.14;97324.06;4868868;29;1047;-77
2023/08/07 08:49:23;;;;;;;;;;;;;;;22.67;28.76;97324.44;4914761;29;1977;-77
2023/08/07 08:51:48;;;;;;;;;;;;;;;22.60;28.77;97336.88;4958378;29;907;-76
2023/08/07 08:54:14;;;;;;;;;;;;;;;22.43;29.33;97338.38;4941880;29;1105;-77
2023/08/07 08:56:40;;;;;;;;;;;;;;;22.53;28.91;97325.03;4957909;29;870;-76
2023/08/07 08:59:05;;;;;;;;;;;;;;;22.60;29.02;97336.88;4940390;29;1313;-76
2023/08/07 09:01:31;;;;;;;;;;;;;;;22.83;28.68;97337.56;4940931;29;937;-77
2023/08/07 09:03:57;;;;;;;;;;;;;;;22.59;29.14;97334.50;4940528;29;1015;-77
2023/08/07 09:06:22;;;;;;;;;;;;;;;22.95;28.44;97324.50;4940948;29;855;-76
2023/08/07 09:08:49;;;;;;;;;;;;;;;22.82;28.68;97324.63;4940779;29;876;-78
2023/08/07 09:11:15;;;;;;;;;;;;;;;22.88;28.45;97329.25;4924834;29;1981;-77
2023/08/07 09:13:41;;;;;;;;;;;;;;;22.60;29.01;97324.75;4940539;29;982;-77
2023/08/07 09:16:07;;;;;;;;;;;;;;;22.96;28.42;97323.28;4940374;29;903;-77
2023/08/07 09:18:33;;;;;;;;;;;;;;;22.60;29.01;97338.91;4940909;29;965;-77
2023/08/07 09:20:59;;;;;;;;;;;;;;;22.87;28.58;97336.16;4956492;29;924;-78
2023/08/07 09:23:25;;;;;;;;;;;;;;;22.69;28.78;97344.63;4940276;29;1010;-77
2023/08/07 09:25:58;;;;;;;;;;;;;;;22.52;29.23;97341.25;4908429;29;983;-77
2023/08/07 09:28:24;;;;;;;;;;;;;;;22.64;28.96;97342.41;4940139;29;894;-77
2023/08/07 09:30:51;;;;;;;;;;;;;;;22.38;29.26;97343.84;4940761;29;1902;-77
2023/08/07 09:33:22;;;;;;;;;;;;;;;22.62;28.83;97334.34;4957388;29;998;-77
2023/08/07 09:35:48;;;;;;;;;;;;;;;22.72;28.86;97332.31;4957542;29;841;-78
2023/08/07 09:38:14;;;;;;;;;;;;;;;22.73;28.66;97339.56;4956792;28;919;-77
2023/08/07 09:40:39;;;;;;;;;;;;;;;22.78;28.60;97341.00;4958124;29;943;-77
2023/08/07 09:43:06;;;;;;;;;;;;;;;22.66;28.80;97339.88;4957467;29;956;-77
2023/08/07 09:45:34;;;;;;;;;;;;;;;22.67;29.08;97349.97;4917470;29;1074;-77
2023/08/07 09:48:00;;;;;;;;;;;;;;;22.85;28.86;97335.84;4917980;29;1010;-77
2023/08/07 09:50:26;;;;;;;;;;;;;;;22.71;29.07;97350.59;4917738;29;1910;-77
2023/08/07 09:52:52;;;;;;;;;;;;;;;22.74;29.12;97346.84;4917779;29;918;-76
2023/08/07 09:55:18;;;;;;;;;;;;;;;22.79;29.08;97343.38;4917695;29;1165;-77
2023/08/07 09:57:44;;;;;;;;;;;;;;;22.70;28.91;97337.69;4917468;29;1041;-77
2023/08/07 10:00:11;;;;;;;;;;;;;;;22.71;29.29;97347.78;4917724;29;945;-77
2023/08/07 10:02:38;;;;;;;;;;;;;;;22.71;29.07;97347.78;4917715;29;950;-77
2023/08/07 10:05:08;;;;;;;;;;;;;;;22.67;29.18;97349.97;4917721;29;954;-77
2023/08/07 10:07:34;;;;;;;;;;;;;;;22.98;28.64;97349.13;4917460;29;1244;-77
2023/08/07 10:09:59;;;;;;;;;;;;;;;22.99;28.73;97345.81;4933216;29;1983;-78
2023/08/07 10:12:27;;;;;;;;;;;;;;;22.96;28.84;97351.66;4917639;29;1024;-77
2023/08/07 10:14:53;;;;;;;;;;;;;;;22.92;28.83;97351.00;4917801;29;910;-77
2023/08/07 10:17:19;;;;;;;;;;;;;;;22.88;29.08;97351.94;4951657;28;1939;-77
2023/08/07 10:19:45;;;;;;;;;;;;;;;22.79;29.02;97343.38;4960019;28;960;-77
2023/08/07 10:22:10;;;;;;;;;;;;;;;22.75;29.32;97347.63;4960059;28;906;-78
2023/08/07 10:24:36;;;;;;;;;;;;;;;22.76;29.06;97347.16;4977091;28;899;-78
2023/08/07 10:27:02;;;;;;;;;;;;;;;22.97;29.03;97348.34;4959978;28;888;-77
2023/08/07 10:29:27;;;;;;;;;;;;;;;23.05;28.71;97343.13;4977392;28;1972;-77
2023/08/07 10:31:53;;;;;;;;;;;;;;;23.13;28.70;97344.41;4959651;28;1006;-77
2023/08/07 10:34:18;;;;;;;;;;;;;;;22.85;29.11;97343.56;4936325;29;956;-77
2023/08/07 10:36:44;;;;;;;;;;;;;;;22.73;29.26;97345.25;4936573;29;1002;-77
2023/08/07 10:39:11;;;;;;;;;;;;;;;22.77;29.28;97345.88;4920652;29;1162;-76
2023/08/07 10:41:45;;;;;;;;;;;;;;;23.10;28.88;97342.50;4920621;29;933;-76
2023/08/07 10:44:17;;;;;;;;;;;;;;;23.15;28.73;97350.41;4920587;29;1130;-77
2023/08/07 10:46:47;;;;;;;;;;;;;;;22.74;29.19;97351.69;4920283;29;1288;-77
2023/08/07 10:49:12;;;;;;;;;;;;;;;22.98;28.95;97344.22;4920587;29;1915;-77
2023/08/07 10:51:38;;;;;;;;;;;;;;;23.01;28.70;97353.88;4923638;29;891;-77
2023/08/07 10:54:04;;;;;;;;;;;;;;;22.86;29.11;97362.16;4939594;29;1397;-77
2023/08/07 10:56:29;;;;;;;;;;;;;;;22.92;29.12;97351.00;4924111;29;1107;-77
2023/08/07 10:58:55;;;;;;;;;;;;;;;23.05;28.54;97354.47;4939956;29;900;-77
2023/08/07 11:01:29;;;;;;;;;;;;;;;22.95;29.02;97364.22;4939729;29;988;-76
2023/08/07 11:04:05;;;;;;;;;;;;;;;22.61;29.43;97360.34;4939353;29;1187;-77
2023/08/07 11:06:31;;;;;;;;;;;;;;;22.70;29.23;97363.22;4942387;29;1100;-76
2023/08/07 11:08:57;;;;;;;;;;;;;;;22.61;29.33;97366.81;4942917;29;942;-77
2023/08/07 11:11:22;;;;;;;;;;;;;;;22.74;29.23;97365.88;4942727;29;1914;-77
2023/08/07 11:13:48;;;;;;;;;;;;;;;22.95;28.87;97370.72;4926777;29;1288;-77
2023/08/07 11:16:14;;;;;;;;;;;;;;;22.97;28.87;97371.03;4958359;29;1067;-77
2023/08/07 11:18:41;;;;;;;;;;;;;;;23.10;28.42;97379.41;4942704;29;1053;-77
2023/08/07 11:21:07;;;;;;;;;;;;;;;22.81;28.75;97369.22;4926950;29;1147;-77
2023/08/07 11:23:32;;;;;;;;;;;;;;;22.73;29.06;97367.94;4938841;29;962;-77
2023/08/07 11:25:58;;;;;;;;;;;;;;;22.94;28.78;97360.59;4939281;29;964;-77
2023/08/07 11:28:24;;;;;;;;;;;;;;;22.63;29.37;97360.66;4939317;29;980;-77
2023/08/07 11:30:51;;;;;;;;;;;;;;;22.69;29.46;97360.81;4938945;29;1910;-77
2023/08/07 11:33:19;;;;;;;;;;;;;;;22.93;28.76;97363.94;4897457;29;982;-77
2023/08/07 11:35:45;;;;;;;;;;;;;;;22.97;28.69;97364.56;4882365;29;910;-78
2023/08/07 11:38:11;;;;;;;;;;;;;;;23.10;28.67;97362.38;4881506;29;1210;-77
2023/08/07 11:40:36;;;;;;;;;;;;;;;23.07;28.65;97363.31;4885688;29;987;-77
2023/08/07 11:43:02;;;;;;;;;;;;;;;22.92;28.75;97368.03;4901037;29;1041;-77
2023/08/07 11:45:28;;;;;;;;;;;;;;;22.79;29.14;97363.22;4906412;29;1129;-77
2023/08/07 11:47:55;;;;;;;;;;;;;;;23.01;28.89;97353.88;4919782;29;998;-78
2023/08/07 11:50:21;;;;;;;;;;;;;;;22.93;28.86;97346.91;4903711;29;1914;-76
2023/08/07 11:52:47;;;;;;;;;;;;;;;22.60;29.56;97358.78;4919669;29;1014;-77
2023/08/07 11:55:14;;;;;;;;;;;;;;;22.77;29.08;97368.59;4881905;29;1005;-76
2023/08/07 11:57:40;;;;;;;;;;;;;;;22.99;28.86;97350.69;4897483;29;999;-77
2023/08/07 12:00:13;;;;;;;;;;;;;;;23.05;28.83;97357.31;4866549;29;862;-77
2023/08/07 12:02:42;;;;;;;;;;;;;;;22.94;28.88;97343.59;4895965;29;946;-76
2023/08/07 12:05:10;;;;;;;;;;;;;;;22.91;29.20;97343.75;4897227;29;997;-77
2023/08/07 12:07:36;;;;;;;;;;;;;;;23.03;28.53;97346.44;4881436;29;1049;-77
2023/08/07 12:10:03;;;;;;;;;;;;;;;22.57;29.44;97349.13;4908499;29;1980;-76
2023/08/07 12:12:32;;;;;;;;;;;;;;;22.87;29.19;97361.69;4922236;29;976;-77
2023/08/07 12:14:57;;;;;;;;;;;;;;;22.79;29.08;97360.38;4906496;29;934;-76
2023/08/07 12:17:23;;;;;;;;;;;;;;;22.79;29.25;97360.38;4922221;29;1056;-77
2023/08/07 12:19:49;;;;;;;;;;;;;;;22.86;29.14;97362.94;4922340;29;1038;-76
2023/08/07 12:22:15;;;;;;;;;;;;;;;23.02;28.67;97355.44;4906344;29;967;-76
2023/08/07 12:24:41;;;;;;;;;;;;;;;23.05;28.64;97346.78;4919583;29;1131;-77
2023/08/07 12:27:07;;;;;;;;;;;;;;;22.91;28.82;97343.75;4937798;29;979;-76
2023/08/07 12:29:32;;;;;;;;;;;;;;;22.74;29.32;97349.69;4921484;29;1984;-76
2023/08/07 12:31:59;;;;;;;;;;;;;;;22.63;29.50;97346.47;4942040;29;960;-76
2023/08/07 12:34:24;;;;;;;;;;;;;;;22.67;29.51;97338.63;4956636;29;1004;-77
2023/08/07 12:36:50;;;;;;;;;;;;;;;22.58;29.55;97347.88;4956732;29;1050;-77
2023/08/07 12:39:15;;;;;;;;;;;;;;;22.76;29.58;97338.66;4972863;28;923;-77
2023/08/07 12:41:41;;;;;;;;;;;;;;;22.84;29.23;97351.25;4940917;29;1018;-76
2023/08/07 12:44:06;;;;;;;;;;;;;;;23.05;28.99;97354.47;4956359;29;972;-77
2023/08/07 12:46:32;;;;;;;;;;;;;;;22.82;29.46;97353.78;4972528;28;1405;-76
2023/08/07 12:48:57;;;;;;;;;;;;;;;23.00;28.93;97355.09;4956500;29;1164;-77
2023/08/07 12:51:23;;;;;;;;;;;;;;;22.90;28.81;97350.66;4972400;28;1906;-77
2023/08/07 12:53:51;;;;;;;;;;;;;;;23.11;28.82;97358.28;4956568;29;991;-77
2023/08/07 12:56:16;;;;;;;;;;;;;;;23.01;28.86;97353.88;4956085;29;1581;-76